createdAt,value
2023-01-10T00:01:08.687Z,7.50
2023-01-10T00:04:11.750Z,7.30
2023-01-10T00:07:16.216Z,7.50
2023-01-10T00:10:19.412Z,7.30
2023-01-10T00:13:24.433Z,7.30
2023-01-10T00:16:27.759Z,7.20
2023-01-10T00:19:30.866Z,7.30
2023-01-10T00:22:35.272Z,7.20
2023-01-10T00:25:38.680Z,7.30
2023-01-10T00:28:43.066Z,7.40
2023-01-10T00:31:46.519Z,7.20
2023-01-10T00:34:49.578Z,7.20
2023-01-10T00:37:57.875Z,7.20
2023-01-10T00:41:00.916Z,7.40
2023-01-10T00:44:03.406Z,7.20
2023-01-10T00:47:06.414Z,7.10
2023-01-10T00:50:10.502Z,7.10
2023-01-10T00:53:15.173Z,7.20
2023-01-10T00:56:18.239Z,7.20
2023-01-10T00:59:22.401Z,7.20
2023-01-10T01:02:25.691Z,7.20
2023-01-10T01:05:28.983Z,7.20
2023-01-10T01:08:34.162Z,7.40
2023-01-10T01:11:37.200Z,7.20
2023-01-10T01:14:41.629Z,7.40
2023-01-10T01:17:44.662Z,7.20
2023-01-10T01:20:48.699Z,7.40
2023-01-10T01:24:05.753Z,7.20
2023-01-10T01:27:08.781Z,7.40
2023-01-10T01:30:13.211Z,7.40
2023-01-10T01:33:16.237Z,7.20
2023-01-10T01:36:20.059Z,6.90
2023-01-10T01:39:24.915Z,7.00
2023-01-10T01:42:30.404Z,7.20
2023-01-10T01:45:48.335Z,7.10
2023-01-10T01:48:51.483Z,7.10
2023-01-10T01:52:02.574Z,7.30
2023-01-10T01:55:08.061Z,7.20
2023-01-10T01:58:35.913Z,6.90
2023-01-10T02:01:40.902Z,6.90
2023-01-10T02:04:54.885Z,7.10
2023-01-10T02:07:59.620Z,6.80
2023-01-10T02:11:09.636Z,6.80
2023-01-10T02:14:15.186Z,6.80
2023-01-10T02:17:18.239Z,6.90
2023-01-10T02:20:23.775Z,6.50
2023-01-10T02:24:10.429Z,6.70
2023-01-10T02:27:27.344Z,6.70
2023-01-10T02:30:54.581Z,6.90
2023-01-10T02:34:06.782Z,6.60
2023-01-10T02:37:26.234Z,6.90
2023-01-10T02:40:35.270Z,6.80
2023-01-10T02:43:42.528Z,6.60
2023-01-10T02:46:47.536Z,6.90
2023-01-10T02:49:53.161Z,6.50
2023-01-10T02:52:58.788Z,6.70
2023-01-10T02:56:39.699Z,6.50
2023-01-10T03:00:19.728Z,6.70
2023-01-10T03:03:33.454Z,6.70
2023-01-10T03:06:45.886Z,6.70
2023-01-10T03:09:55.880Z,7.00
2023-01-10T03:13:03.095Z,6.80
2023-01-10T03:16:08.860Z,6.90
2023-01-10T03:19:16.783Z,6.80
2023-01-10T03:22:21.642Z,6.80
2023-01-10T03:25:29.344Z,6.90
2023-01-10T03:28:36.598Z,6.70
2023-01-10T03:31:45.217Z,6.90
2023-01-10T03:34:48.626Z,6.70
2023-01-10T03:37:58.239Z,7.00
2023-01-10T03:41:04.850Z,6.90
2023-01-10T03:44:34.497Z,6.70
2023-01-10T03:47:42.034Z,7.00
2023-01-10T03:50:46.834Z,6.70
2023-01-10T03:53:51.371Z,6.60
2023-01-10T03:56:54.426Z,6.80
2023-01-10T03:59:58.898Z,6.70
2023-01-10T04:03:01.935Z,6.80
2023-01-10T04:06:06.463Z,7.00
2023-01-10T04:09:12.609Z,6.90
2023-01-10T04:12:15.772Z,6.90
2023-01-10T04:15:19.417Z,6.70
2023-01-10T04:18:22.417Z,7.00
2023-01-10T04:21:25.514Z,7.10
2023-01-10T04:24:29.906Z,6.90
2023-01-10T04:27:33.009Z,6.70
2023-01-10T04:30:36.044Z,7.00
2023-01-10T04:33:40.903Z,6.60
2023-01-10T04:36:51.591Z,7.00
2023-01-10T04:39:55.956Z,7.10
2023-01-10T04:42:59.028Z,6.90
2023-01-10T04:46:02.245Z,6.80
2023-01-10T04:49:06.079Z,6.80
2023-01-10T04:52:09.161Z,7.00
2023-01-10T04:55:13.594Z,6.60
2023-01-10T04:58:16.627Z,6.70
2023-01-10T05:01:21.777Z,6.80
2023-01-10T05:04:25.012Z,6.70
2023-01-10T05:07:28.320Z,6.90
2023-01-10T05:10:32.742Z,6.70
2023-01-10T05:13:35.786Z,6.70
2023-01-10T05:16:38.840Z,6.80
2023-01-10T05:19:45.065Z,6.70
2023-01-10T05:22:49.250Z,7.00
2023-01-10T05:25:53.651Z,7.10
2023-01-10T05:28:56.657Z,6.90
2023-01-10T05:31:59.793Z,6.80
2023-01-10T05:35:02.899Z,6.80
2023-01-10T05:38:05.940Z,6.90
2023-01-10T05:41:10.378Z,6.80
2023-01-10T05:44:14.858Z,6.80
2023-01-10T05:47:19.513Z,7.00
2023-01-10T05:50:22.511Z,6.80
2023-01-10T05:53:25.610Z,6.90
2023-01-10T05:56:30.263Z,6.80
2023-01-10T05:59:33.325Z,7.00
2023-01-10T06:02:36.441Z,6.70
2023-01-10T06:05:39.530Z,6.80
2023-01-10T06:08:42.744Z,6.90
2023-01-10T06:11:47.193Z,6.90
2023-01-10T06:14:50.196Z,6.90
2023-01-10T06:17:53.270Z,6.80
2023-01-10T06:20:56.263Z,6.90
2023-01-10T06:23:59.255Z,6.90
2023-01-10T06:27:03.645Z,7.00
2023-01-10T06:30:07.681Z,6.80
2023-01-10T06:33:12.018Z,7.00
2023-01-10T06:36:15.168Z,6.80
2023-01-10T06:39:18.230Z,6.80
2023-01-10T06:42:22.679Z,6.80
2023-01-10T06:45:25.740Z,6.90
2023-01-10T06:48:28.801Z,7.00
2023-01-10T06:51:31.842Z,7.10
2023-01-10T06:54:34.868Z,7.00
2023-01-10T06:57:39.352Z,7.00
2023-01-10T07:00:42.363Z,7.00
2023-01-10T07:03:47.443Z,6.80
2023-01-10T07:06:50.946Z,7.00
2023-01-10T07:09:53.968Z,7.00
2023-01-10T07:12:59.301Z,6.80
2023-01-10T07:16:06.467Z,7.00
2023-01-10T07:19:09.653Z,6.90
2023-01-10T07:22:13.210Z,7.20
2023-01-10T07:25:16.242Z,6.90
2023-01-10T07:28:20.756Z,7.00
2023-01-10T07:31:24.512Z,6.90
2023-01-10T07:34:27.675Z,6.80
2023-01-10T07:37:30.713Z,6.90
2023-01-10T07:40:33.804Z,7.00
2023-01-10T07:43:40.428Z,7.00
2023-01-10T07:46:44.578Z,6.80
2023-01-10T07:49:47.612Z,7.10
2023-01-10T07:52:50.680Z,7.10
2023-01-10T07:55:53.741Z,6.90
2023-01-10T07:58:58.302Z,6.80
2023-01-10T08:02:01.316Z,7.20
2023-01-10T08:05:04.489Z,6.90
2023-01-10T08:08:08.625Z,6.80
2023-01-10T08:11:11.630Z,6.90
2023-01-10T08:14:16.051Z,6.90
2023-01-10T08:17:19.264Z,6.90
2023-01-10T08:20:22.515Z,7.10
2023-01-10T08:23:25.706Z,7.20
2023-01-10T08:26:28.866Z,7.20
2023-01-10T08:29:33.612Z,7.00
2023-01-10T08:32:36.621Z,7.30
2023-01-10T08:35:40.186Z,7.00
2023-01-10T08:38:43.198Z,7.10
2023-01-10T08:41:46.228Z,7.10
2023-01-10T08:44:50.596Z,7.10
2023-01-10T08:47:54.975Z,7.00
2023-01-10T08:50:59.252Z,7.10
2023-01-10T08:54:02.907Z,7.00
2023-01-10T08:57:05.899Z,7.30
2023-01-10T09:00:12.223Z,7.10
2023-01-10T09:03:22.229Z,7.10
2023-01-10T09:06:25.305Z,7.20
2023-01-10T09:09:28.362Z,7.20
2023-01-10T09:12:49.214Z,7.30
2023-01-10T09:15:54.029Z,7.40
2023-01-10T09:18:57.106Z,7.60
2023-01-10T09:22:00.040Z,7.60
2023-01-10T09:25:07.613Z,7.60
2023-01-10T09:28:10.875Z,7.50
2023-01-10T09:31:15.381Z,7.70
2023-01-10T09:34:18.356Z,7.80
2023-01-10T09:37:21.495Z,7.90
2023-01-10T09:40:44.941Z,7.90
2023-01-10T09:44:01.423Z,7.90
2023-01-10T09:47:22.157Z,7.90
2023-01-10T09:50:33.593Z,8.00
2023-01-10T09:53:40.781Z,8.10
2023-01-10T09:56:45.511Z,8.10
2023-01-10T09:59:51.565Z,8.10
2023-01-10T10:02:58.872Z,7.90
2023-01-10T10:06:11.747Z,7.90
2023-01-10T10:09:18.533Z,7.90
2023-01-10T10:12:31.009Z,7.90
2023-01-10T10:15:41.490Z,8.10
2023-01-10T10:18:56.729Z,8.20
2023-01-10T10:22:08.420Z,8.30
2023-01-10T10:25:27.532Z,8.20
2023-01-10T10:29:06.226Z,8.00
2023-01-10T10:32:40.231Z,8.00
2023-01-10T10:35:50.930Z,8.10
2023-01-10T10:38:58.771Z,8.10
2023-01-10T10:42:01.887Z,8.10
2023-01-10T10:45:20.731Z,8.00
2023-01-10T10:48:28.295Z,7.90
2023-01-10T10:51:41.883Z,7.90
2023-01-10T10:54:47.604Z,7.90
2023-01-10T10:57:59.721Z,7.90
2023-01-10T11:01:03.961Z,7.90
2023-01-10T11:04:15.982Z,7.80
2023-01-10T11:07:21.775Z,7.70
2023-01-10T11:10:36.933Z,7.70
2023-01-10T11:13:48.047Z,7.90
2023-01-10T11:16:51.090Z,7.50
2023-01-10T11:19:59.537Z,7.70
2023-01-10T11:23:05.386Z,7.80
2023-01-10T11:26:10.454Z,7.70
2023-01-10T11:29:18.229Z,7.80
2023-01-10T11:32:24.226Z,7.80
2023-01-10T11:35:29.974Z,7.80
2023-01-10T11:38:35.518Z,7.80
2023-01-10T11:41:38.592Z,7.90
2023-01-10T11:44:41.863Z,8.00
2023-01-10T11:47:48.717Z,8.00
2023-01-10T11:50:55.539Z,8.20
2023-01-10T11:54:02.150Z,8.20
2023-01-10T11:57:16.305Z,8.60
2023-01-10T12:00:19.895Z,8.40
2023-01-10T12:03:28.425Z,8.50
2023-01-10T12:06:31.897Z,8.50
2023-01-10T12:09:39.784Z,8.60
2023-01-10T12:12:55.992Z,8.60
2023-01-10T12:16:23.110Z,8.40
2023-01-10T12:19:26.253Z,8.40
2023-01-10T12:22:33.268Z,8.50
2023-01-10T12:25:40.924Z,8.70
2023-01-10T12:28:49.265Z,8.70
2023-01-10T12:31:55.835Z,8.70
2023-01-10T12:35:04.520Z,8.70
2023-01-10T12:38:22.108Z,8.80
2023-01-10T12:41:48.805Z,8.90
2023-01-10T12:45:00.497Z,8.90
2023-01-10T12:48:11.203Z,8.90
2023-01-10T12:51:20.755Z,8.90
2023-01-10T12:54:31.113Z,8.90
2023-01-10T12:57:40.410Z,8.90
2023-01-10T13:00:48.519Z,8.80
2023-01-10T13:03:57.232Z,8.80
2023-01-10T13:07:02.282Z,8.90
2023-01-10T13:10:18.119Z,8.90
2023-01-10T13:13:32.538Z,8.80
2023-01-10T13:16:46.903Z,8.80
2023-01-10T13:20:22.675Z,8.80
2023-01-10T13:23:31.098Z,8.70
2023-01-10T13:26:51.031Z,8.60
2023-01-10T13:29:55.490Z,8.60
2023-01-10T13:33:04.179Z,8.50
2023-01-10T13:36:20.309Z,8.50
2023-01-10T13:39:28.763Z,8.50
2023-01-10T13:42:50.664Z,8.50
2023-01-10T13:46:27.963Z,8.50
2023-01-10T13:49:47.251Z,8.40
2023-01-10T13:52:50.700Z,8.40
2023-01-10T13:55:57.552Z,8.30
2023-01-10T13:59:19.386Z,8.30
2023-01-10T14:02:31.631Z,8.20
2023-01-10T14:05:36.077Z,8.20
2023-01-10T14:08:40.127Z,8.30
2023-01-10T14:11:53.860Z,8.20
2023-01-10T14:15:00.534Z,8.20
2023-01-10T14:18:06.739Z,8.20
2023-01-10T14:21:22.604Z,8.10
2023-01-10T14:24:31.491Z,8.30
2023-01-10T14:27:44.799Z,8.10
2023-01-10T14:31:00.294Z,8.00
2023-01-10T14:34:05.721Z,7.90
2023-01-10T14:37:23.413Z,7.80
2023-01-10T14:40:30.465Z,7.70
2023-01-10T14:43:44.083Z,7.90
2023-01-10T14:46:48.773Z,7.70
2023-01-10T14:49:52.448Z,7.70
2023-01-10T14:52:57.289Z,7.60
2023-01-10T14:56:00.324Z,7.60
2023-01-10T14:59:17.670Z,7.60
2023-01-10T15:02:23.963Z,7.60
2023-01-10T15:05:32.830Z,7.60
2023-01-10T15:08:37.268Z,7.70
2023-01-10T15:11:40.517Z,7.60
2023-01-10T15:14:43.716Z,7.70
2023-01-10T15:17:47.319Z,7.60
2023-01-10T15:20:50.768Z,7.80
2023-01-10T15:23:55.165Z,7.40
2023-01-10T15:27:00.577Z,7.60
2023-01-10T15:30:08.547Z,7.60
2023-01-10T15:33:15.450Z,7.50
2023-01-10T15:36:21.181Z,7.40
2023-01-10T15:39:28.145Z,7.40
2023-01-10T15:42:32.374Z,7.30
2023-01-10T15:45:38.985Z,7.50
2023-01-10T15:48:43.825Z,7.50
2023-01-10T15:51:48.897Z,7.40
2023-01-10T15:54:56.825Z,7.40
2023-01-10T15:58:01.301Z,7.30
2023-01-10T16:01:05.352Z,7.50
2023-01-10T16:04:15.519Z,7.50
2023-01-10T16:07:22.827Z,7.50
2023-01-10T16:10:28.275Z,7.40
2023-01-10T16:13:34.057Z,7.40
2023-01-10T16:16:37.459Z,7.50
2023-01-10T16:19:40.519Z,7.50
2023-01-10T16:22:44.185Z,7.80
2023-01-10T16:25:51.274Z,7.40
2023-01-10T16:28:54.265Z,7.40
2023-01-10T16:31:57.375Z,7.40
2023-01-10T16:35:01.459Z,7.40
2023-01-10T16:38:05.806Z,7.30
2023-01-10T16:41:31.324Z,7.30
2023-01-10T16:44:35.641Z,7.50
2023-01-10T16:47:38.677Z,7.20
2023-01-10T16:50:42.070Z,7.30
2023-01-10T16:53:45.127Z,7.40
2023-01-10T16:56:51.431Z,7.30
2023-01-10T16:59:55.019Z,7.30
2023-01-10T17:02:59.471Z,7.30
2023-01-10T17:06:10.278Z,7.60
2023-01-10T17:09:28.163Z,7.30
2023-01-10T17:12:36.547Z,7.20
2023-01-10T17:15:45.364Z,7.10
2023-01-10T17:18:48.593Z,7.10
2023-01-10T17:21:51.738Z,7.20
2023-01-10T17:24:54.780Z,7.30
2023-01-10T17:27:59.180Z,6.90
2023-01-10T17:31:03.083Z,7.20
2023-01-10T17:34:06.160Z,7.00
2023-01-10T17:37:09.299Z,7.10
2023-01-10T17:40:13.320Z,7.10
2023-01-10T17:43:19.120Z,7.10
2023-01-10T17:46:22.318Z,7.10
2023-01-10T17:49:25.487Z,7.10
2023-01-10T17:52:28.660Z,6.70
2023-01-10T17:55:33.167Z,7.00
2023-01-10T17:58:37.554Z,6.80
2023-01-10T18:01:46.829Z,6.70
2023-01-10T18:04:49.912Z,6.90
2023-01-10T18:07:52.993Z,6.60
2023-01-10T18:11:01.117Z,6.80
2023-01-10T18:14:19.696Z,6.90
2023-01-10T18:17:22.737Z,6.60
2023-01-10T18:20:27.708Z,6.40
2023-01-10T18:23:31.823Z,6.50
2023-01-10T18:26:34.960Z,6.70
2023-01-10T18:29:39.449Z,6.30
2023-01-10T18:32:42.447Z,6.80
2023-01-10T18:35:47.333Z,6.40
2023-01-10T18:38:51.507Z,6.30
2023-01-10T18:41:54.530Z,6.50
2023-01-10T18:44:58.935Z,6.50
2023-01-10T18:48:02.366Z,6.70
2023-01-10T18:51:06.370Z,6.50
2023-01-10T18:54:09.512Z,6.40
2023-01-10T18:57:12.529Z,6.40
2023-01-10T19:00:17.863Z,6.20
2023-01-10T19:03:21.027Z,6.20
2023-01-10T19:06:26.097Z,6.20
2023-01-10T19:09:29.108Z,6.30
2023-01-10T19:12:32.196Z,5.90
2023-01-10T19:15:38.001Z,6.10
2023-01-10T19:18:51.161Z,6.00
2023-01-10T19:21:54.189Z,6.00
2023-01-10T19:24:57.261Z,5.70
2023-01-10T19:28:00.192Z,5.80
2023-01-10T19:31:05.412Z,5.80
2023-01-10T19:34:14.919Z,5.80
2023-01-10T19:37:18.112Z,5.80
2023-01-10T19:40:21.191Z,5.70
2023-01-10T19:43:24.967Z,5.70
2023-01-10T19:46:32.142Z,5.80
2023-01-10T19:49:37.018Z,5.80
2023-01-10T19:52:40.074Z,5.50
2023-01-10T19:55:46.959Z,5.70
2023-01-10T19:58:50.545Z,5.50
2023-01-10T20:01:58.528Z,5.90
2023-01-10T20:05:02.405Z,5.50
2023-01-10T20:08:05.964Z,5.60
2023-01-10T20:11:09.290Z,5.40
2023-01-10T20:14:14.830Z,5.30
2023-01-10T20:17:19.585Z,5.40
2023-01-10T20:20:23.574Z,5.40
2023-01-10T20:23:26.619Z,5.50
2023-01-10T20:26:30.554Z,5.50
2023-01-10T20:29:34.482Z,5.30
2023-01-10T20:32:38.859Z,5.30
2023-01-10T20:35:42.740Z,5.20
2023-01-10T20:38:46.069Z,5.60
2023-01-10T20:41:49.371Z,5.20
2023-01-10T20:44:52.379Z,5.10
2023-01-10T20:47:56.781Z,5.20
2023-01-10T20:50:59.867Z,5.00
2023-01-10T20:54:04.135Z,5.30
2023-01-10T20:57:07.140Z,5.40
2023-01-10T21:00:11.586Z,5.40
2023-01-10T21:03:16.033Z,5.20
2023-01-10T21:06:20.190Z,5.10
2023-01-10T21:09:23.381Z,5.20
2023-01-10T21:12:34.398Z,5.20
2023-01-10T21:15:40.307Z,5.10
2023-01-10T21:18:44.967Z,5.10
2023-01-10T21:21:48.716Z,5.00
2023-01-10T21:24:52.936Z,4.80
2023-01-10T21:27:56.262Z,5.10
2023-01-10T21:30:59.299Z,5.00
2023-01-10T21:34:03.736Z,5.20
2023-01-10T21:37:06.851Z,5.00
2023-01-10T21:40:11.247Z,4.90
2023-01-10T21:43:14.316Z,5.10
2023-01-10T21:46:17.385Z,4.90
2023-01-10T21:49:22.236Z,5.20
2023-01-10T21:52:25.427Z,4.80
2023-01-10T21:55:28.571Z,5.10
2023-01-10T21:58:31.504Z,4.80
2023-01-10T22:01:34.506Z,5.00
2023-01-10T22:04:38.911Z,5.00
2023-01-10T22:07:41.961Z,5.00
2023-01-10T22:10:46.539Z,4.50
2023-01-10T22:13:50.822Z,5.00
2023-01-10T22:16:54.011Z,4.90
2023-01-10T22:19:58.468Z,4.80
2023-01-10T22:23:01.675Z,4.70
2023-01-10T22:26:07.953Z,4.80
2023-01-10T22:29:10.996Z,5.10
2023-01-10T22:32:15.106Z,4.80
2023-01-10T22:35:19.503Z,4.90
2023-01-10T22:38:22.617Z,4.90
2023-01-10T22:41:26.585Z,5.10
2023-01-10T22:44:29.765Z,4.90
2023-01-10T22:47:32.746Z,5.00
2023-01-10T22:50:37.232Z,4.90
2023-01-10T22:53:40.418Z,5.00
2023-01-10T22:56:43.732Z,5.00
2023-01-10T22:59:46.705Z,4.80
2023-01-10T23:02:49.877Z,5.20
2023-01-10T23:05:57.269Z,4.90
2023-01-10T23:09:00.645Z,5.10
2023-01-10T23:12:03.717Z,4.90
2023-01-10T23:15:07.653Z,5.10
2023-01-10T23:18:10.745Z,5.00
2023-01-10T23:21:15.791Z,4.90
2023-01-10T23:24:19.215Z,4.90
2023-01-10T23:27:22.381Z,5.00
2023-01-10T23:30:26.701Z,4.90
2023-01-10T23:33:30.255Z,4.80
2023-01-10T23:36:34.657Z,4.90
2023-01-10T23:39:37.651Z,5.00
2023-01-10T23:42:40.624Z,4.90
2023-01-10T23:45:44.177Z,5.10
2023-01-10T23:48:48.402Z,4.80
2023-01-10T23:51:52.814Z,5.20
2023-01-10T23:54:55.775Z,5.10
2023-01-10T23:57:59.103Z,5.00
